sensor_id;sensor_type;location;lat;lon;timestamp;pressure;altitude;pressure_sealevel;temperature;humidity
67842;BME280;54642;59.126;37.876;2022-12-18T00:01:32;100803.34;;;-6.16;76.40
67842;BME280;54642;59.126;37.876;2022-12-18T00:03:59;100769.47;;;-6.31;76.37
67842;BME280;54642;59.126;37.876;2022-12-18T00:06:28;100795.59;;;-6.19;76.42
67842;BME280;54642;59.126;37.876;2022-12-18T00:08:55;100782.94;;;-6.30;76.25
67842;BME280;54642;59.126;37.876;2022-12-18T00:11:24;100785.22;;;-6.34;76.35
67842;BME280;54642;59.126;37.876;2022-12-18T00:13:52;100785.34;;;-6.32;76.44
67842;BME280;54642;59.126;37.876;2022-12-18T00:16:21;100791.72;;;-6.25;76.56
67842;BME280;54642;59.126;37.876;2022-12-18T00:18:50;100781.41;;;-6.28;76.81
67842;BME280;54642;59.126;37.876;2022-12-18T00:21:16;100761.84;;;-6.43;76.50
67842;BME280;54642;59.126;37.876;2022-12-18T00:23:44;100766.03;;;-6.32;76.52
67842;BME280;54642;59.126;37.876;2022-12-18T00:26:18;100760.88;;;-6.33;76.45
67842;BME280;54642;59.126;37.876;2022-12-18T00:28:45;100753.84;;;-6.37;76.54
67842;BME280;54642;59.126;37.876;2022-12-18T00:31:18;100736.28;;;-6.47;76.40
67842;BME280;54642;59.126;37.876;2022-12-18T00:33:45;100722.69;;;-6.61;76.40
67842;BME280;54642;59.126;37.876;2022-12-18T00:36:14;100774.50;;;-6.31;76.57
67842;BME280;54642;59.126;37.876;2022-12-18T00:38:40;100764.97;;;-6.23;76.37
67842;BME280;54642;59.126;37.876;2022-12-18T00:41:09;100750.69;;;-6.23;76.26
67842;BME280;54642;59.126;37.876;2022-12-18T00:43:36;100756.84;;;-6.19;76.19
67842;BME280;54642;59.126;37.876;2022-12-18T00:46:02;100746.75;;;-6.31;76.21
67842;BME280;54642;59.126;37.876;2022-12-18T00:48:28;100706.34;;;-6.55;76.35
67842;BME280;54642;59.126;37.876;2022-12-18T00:50:54;100738.97;;;-6.34;76.41
67842;BME280;54642;59.126;37.876;2022-12-18T00:53:20;100761.00;;;-6.32;76.37
67842;BME280;54642;59.126;37.876;2022-12-18T00:55:47;100758.47;;;-6.32;76.27
67842;BME280;54642;59.126;37.876;2022-12-18T00:58:14;100763.38;;;-6.33;76.66
67842;BME280;54642;59.126;37.876;2022-12-18T01:00:42;100757.59;;;-6.32;76.32
67842;BME280;54642;59.126;37.876;2022-12-18T01:03:13;100748.94;;;-6.36;76.49
67842;BME280;54642;59.126;37.876;2022-12-18T01:05:41;100746.53;;;-6.34;76.69
67842;BME280;54642;59.126;37.876;2022-12-18T01:08:07;100736.56;;;-6.33;76.67
67842;BME280;54642;59.126;37.876;2022-12-18T01:10:34;100763.63;;;-6.30;76.55
67842;BME280;54642;59.126;37.876;2022-12-18T01:13:00;100766.59;;;-6.36;76.36
67842;BME280;54642;59.126;37.876;2022-12-18T01:15:26;100754.84;;;-6.47;76.51
67842;BME280;54642;59.126;37.876;2022-12-18T01:17:54;100755.59;;;-6.48;76.65
67842;BME280;54642;59.126;37.876;2022-12-18T01:20:22;100752.75;;;-6.53;76.50
67842;BME280;54642;59.126;37.876;2022-12-18T01:22:48;100762.03;;;-6.52;76.66
67842;BME280;54642;59.126;37.876;2022-12-18T01:25:14;100730.66;;;-6.67;76.65
67842;BME280;54642;59.126;37.876;2022-12-18T01:27:40;100732.22;;;-6.57;76.70
67842;BME280;54642;59.126;37.876;2022-12-18T01:30:07;100762.59;;;-6.44;76.71
67842;BME280;54642;59.126;37.876;2022-12-18T01:32:33;100750.41;;;-6.49;76.51
67842;BME280;54642;59.126;37.876;2022-12-18T01:35:01;100733.75;;;-6.59;76.69
67842;BME280;54642;59.126;37.876;2022-12-18T01:37:27;100755.94;;;-6.43;76.67
67842;BME280;54642;59.126;37.876;2022-12-18T01:39:53;100744.94;;;-6.44;76.76
67842;BME280;54642;59.126;37.876;2022-12-18T01:42:22;100738.91;;;-6.46;76.64
67842;BME280;54642;59.126;37.876;2022-12-18T01:47:46;100737.63;;;-6.41;76.73
67842;BME280;54642;59.126;37.876;2022-12-18T01:50:22;100713.59;;;-6.47;76.86
67842;BME280;54642;59.126;37.876;2022-12-18T01:53:15;100714.91;;;-6.41;76.67
67842;BME280;54642;59.126;37.876;2022-12-18T01:55:48;100716.81;;;-6.38;76.65
67842;BME280;54642;59.126;37.876;2022-12-18T01:58:17;100711.41;;;-6.43;76.67
67842;BME280;54642;59.126;37.876;2022-12-18T02:00:47;100691.66;;;-6.60;76.61
67842;BME280;54642;59.126;37.876;2022-12-18T02:03:13;100702.50;;;-6.49;76.78
67842;BME280;54642;59.126;37.876;2022-12-18T02:08:43;100704.59;;;-6.44;76.89
67842;BME280;54642;59.126;37.876;2022-12-18T02:14:17;100697.59;;;-6.48;76.67
67842;BME280;54642;59.126;37.876;2022-12-18T02:17:21;100698.47;;;-6.47;76.90
67842;BME280;54642;59.126;37.876;2022-12-18T02:20:13;100695.72;;;-6.50;76.77
67842;BME280;54642;59.126;37.876;2022-12-18T02:26:17;100692.31;;;-6.63;76.84
67842;BME280;54642;59.126;37.876;2022-12-18T02:31:25;100701.41;;;-6.65;76.75
67842;BME280;54642;59.126;37.876;2022-12-18T02:33:54;100708.19;;;-6.64;76.71
67842;BME280;54642;59.126;37.876;2022-12-18T02:36:21;100674.50;;;-6.76;76.88
67842;BME280;54642;59.126;37.876;2022-12-18T02:38:49;100679.22;;;-6.69;76.79
67842;BME280;54642;59.126;37.876;2022-12-18T02:41:16;100690.03;;;-6.60;76.95
67842;BME280;54642;59.126;37.876;2022-12-18T02:43:48;100693.84;;;-6.65;76.69
67842;BME280;54642;59.126;37.876;2022-12-18T02:46:36;100688.81;;;-6.65;76.70
67842;BME280;54642;59.126;37.876;2022-12-18T02:51:55;100682.53;;;-6.70;76.88
67842;BME280;54642;59.126;37.876;2022-12-18T02:54:33;100695.16;;;-6.58;76.82
67842;BME280;54642;59.126;37.876;2022-12-18T03:00:11;100694.16;;;-6.60;76.81
67842;BME280;54642;59.126;37.876;2022-12-18T03:05:15;100699.56;;;-6.56;76.74
67842;BME280;54642;59.126;37.876;2022-12-18T03:07:57;100661.28;;;-6.74;76.78
67842;BME280;54642;59.126;37.876;2022-12-18T03:10:33;100690.91;;;-6.59;76.78
67842;BME280;54642;59.126;37.876;2022-12-18T03:13:04;100685.19;;;-6.57;76.89
67842;BME280;54642;59.126;37.876;2022-12-18T03:15:36;100662.69;;;-6.65;76.72
67842;BME280;54642;59.126;37.876;2022-12-18T03:18:14;100676.31;;;-6.52;76.78
67842;BME280;54642;59.126;37.876;2022-12-18T03:20:43;100668.84;;;-6.62;76.82
67842;BME280;54642;59.126;37.876;2022-12-18T03:23:21;100679.38;;;-6.56;76.78
67842;BME280;54642;59.126;37.876;2022-12-18T03:25:52;100663.91;;;-6.72;76.66
67842;BME280;54642;59.126;37.876;2022-12-18T03:28:22;100674.97;;;-6.70;76.63
67842;BME280;54642;59.126;37.876;2022-12-18T03:31:00;100680.03;;;-6.70;76.61
67842;BME280;54642;59.126;37.876;2022-12-18T03:33:41;100676.50;;;-6.72;76.77
67842;BME280;54642;59.126;37.876;2022-12-18T03:36:09;100669.47;;;-6.76;76.84
67842;BME280;54642;59.126;37.876;2022-12-18T03:38:38;100677.06;;;-6.64;76.78
67842;BME280;54642;59.126;37.876;2022-12-18T03:41:24;100682.00;;;-6.66;76.84
67842;BME280;54642;59.126;37.876;2022-12-18T03:47:07;100670.88;;;-6.80;76.88
67842;BME280;54642;59.126;37.876;2022-12-18T03:52:35;100639.84;;;-6.91;76.67
67842;BME280;54642;59.126;37.876;2022-12-18T03:55:03;100666.63;;;-6.69;76.88
67842;BME280;54642;59.126;37.876;2022-12-18T03:57:32;100661.19;;;-6.63;76.73
67842;BME280;54642;59.126;37.876;2022-12-18T04:00:08;100658.44;;;-6.66;76.56
67842;BME280;54642;59.126;37.876;2022-12-18T04:02:54;100654.03;;;-6.69;76.64
67842;BME280;54642;59.126;37.876;2022-12-18T04:05:30;100651.09;;;-6.63;76.97
67842;BME280;54642;59.126;37.876;2022-12-18T04:08:02;100595.91;;;-6.94;76.67
67842;BME280;54642;59.126;37.876;2022-12-18T04:10:29;100620.16;;;-6.84;76.70
67842;BME280;54642;59.126;37.876;2022-12-18T04:12:57;100641.00;;;-6.75;76.58
67842;BME280;54642;59.126;37.876;2022-12-18T04:15:25;100651.63;;;-6.79;76.68
67842;BME280;54642;59.126;37.876;2022-12-18T04:17:52;100648.88;;;-6.82;76.73
67842;BME280;54642;59.126;37.876;2022-12-18T04:20:21;100598.75;;;-7.13;76.93
67842;BME280;54642;59.126;37.876;2022-12-18T04:22:47;100625.81;;;-6.99;76.82
67842;BME280;54642;59.126;37.876;2022-12-18T04:25:13;100651.38;;;-6.82;76.99
67842;BME280;54642;59.126;37.876;2022-12-18T04:27:54;100653.25;;;-6.80;76.76
67842;BME280;54642;59.126;37.876;2022-12-18T04:30:23;100631.97;;;-6.83;77.23
67842;BME280;54642;59.126;37.876;2022-12-18T04:32:48;100639.41;;;-6.85;76.86
67842;BME280;54642;59.126;37.876;2022-12-18T04:35:14;100649.28;;;-6.88;76.84
67842;BME280;54642;59.126;37.876;2022-12-18T04:37:42;100645.47;;;-6.83;76.64
67842;BME280;54642;59.126;37.876;2022-12-18T04:40:09;100639.66;;;-6.82;76.89
67842;BME280;54642;59.126;37.876;2022-12-18T04:42:43;100615.50;;;-7.02;76.84
67842;BME280;54642;59.126;37.876;2022-12-18T04:45:09;100637.56;;;-6.87;76.78
67842;BME280;54642;59.126;37.876;2022-12-18T04:47:35;100647.84;;;-6.96;76.80
67842;BME280;54642;59.126;37.876;2022-12-18T04:50:02;100640.28;;;-6.96;77.03
67842;BME280;54642;59.126;37.876;2022-12-18T04:52:30;100638.44;;;-6.99;76.62
67842;BME280;54642;59.126;37.876;2022-12-18T04:54:56;100638.94;;;-7.03;76.92
67842;BME280;54642;59.126;37.876;2022-12-18T04:57:22;100630.50;;;-7.15;76.80
67842;BME280;54642;59.126;37.876;2022-12-18T04:59:48;100647.28;;;-7.04;76.72
67842;BME280;54642;59.126;37.876;2022-12-18T05:02:14;100621.91;;;-7.17;76.75
67842;BME280;54642;59.126;37.876;2022-12-18T05:04:40;100644.75;;;-7.04;76.70
67842;BME280;54642;59.126;37.876;2022-12-18T05:07:06;100629.53;;;-7.05;76.60
67842;BME280;54642;59.126;37.876;2022-12-18T05:09:32;100641.66;;;-6.78;76.69
67842;BME280;54642;59.126;37.876;2022-12-18T05:11:58;100647.56;;;-6.77;76.52
67842;BME280;54642;59.126;37.876;2022-12-18T05:14:24;100645.03;;;-6.77;76.60
67842;BME280;54642;59.126;37.876;2022-12-18T05:16:49;100644.06;;;-6.79;76.76
67842;BME280;54642;59.126;37.876;2022-12-18T05:19:15;100609.94;;;-6.98;76.59
67842;BME280;54642;59.126;37.876;2022-12-18T05:21:41;100599.97;;;-6.96;76.77
67842;BME280;54642;59.126;37.876;2022-12-18T05:24:07;100639.34;;;-6.75;76.72
67842;BME280;54642;59.126;37.876;2022-12-18T05:26:33;100604.56;;;-6.91;76.73
67842;BME280;54642;59.126;37.876;2022-12-18T05:28:59;100629.78;;;-6.91;76.66
67842;BME280;54642;59.126;37.876;2022-12-18T05:31:25;100651.69;;;-6.90;76.54
67842;BME280;54642;59.126;37.876;2022-12-18T05:33:50;100654.97;;;-6.91;76.84
67842;BME280;54642;59.126;37.876;2022-12-18T05:36:19;100649.50;;;-6.97;76.60
67842;BME280;54642;59.126;37.876;2022-12-18T05:38:45;100656.75;;;-6.90;76.75
67842;BME280;54642;59.126;37.876;2022-12-18T05:41:11;100621.59;;;-7.10;76.60
67842;BME280;54642;59.126;37.876;2022-12-18T05:43:38;100647.72;;;-6.98;76.89
67842;BME280;54642;59.126;37.876;2022-12-18T05:46:12;100633.91;;;-7.03;76.88
67842;BME280;54642;59.126;37.876;2022-12-18T05:48:39;100639.19;;;-7.00;76.69
67842;BME280;54642;59.126;37.876;2022-12-18T05:51:16;100664.38;;;-7.00;76.43
67842;BME280;54642;59.126;37.876;2022-12-18T05:53:42;100641.00;;;-7.09;76.53
67842;BME280;54642;59.126;37.876;2022-12-18T05:56:16;100652.84;;;-7.08;76.71
67842;BME280;54642;59.126;37.876;2022-12-18T05:58:42;100650.72;;;-7.14;76.92
67842;BME280;54642;59.126;37.876;2022-12-18T06:01:22;100666.50;;;-7.16;76.63
67842;BME280;54642;59.126;37.876;2022-12-18T06:03:52;100660.72;;;-7.15;76.65
67842;BME280;54642;59.126;37.876;2022-12-18T06:06:21;100653.38;;;-7.12;76.79
67842;BME280;54642;59.126;37.876;2022-12-18T06:08:48;100662.09;;;-6.97;76.55
67842;BME280;54642;59.126;37.876;2022-12-18T06:11:22;100662.09;;;-6.97;76.46
67842;BME280;54642;59.126;37.876;2022-12-18T06:13:55;100648.13;;;-7.15;76.48
67842;BME280;54642;59.126;37.876;2022-12-18T06:16:24;100661.47;;;-7.16;76.71
67842;BME280;54642;59.126;37.876;2022-12-18T06:18:50;100664.72;;;-7.17;76.49
67842;BME280;54642;59.126;37.876;2022-12-18T06:21:16;100638.41;;;-7.33;76.88
67842;BME280;54642;59.126;37.876;2022-12-18T06:23:42;100660.47;;;-7.18;76.69
67842;BME280;54642;59.126;37.876;2022-12-18T06:26:09;100664.97;;;-7.14;76.55
67842;BME280;54642;59.126;37.876;2022-12-18T06:28:48;100660.13;;;-7.23;76.60
67842;BME280;54642;59.126;37.876;2022-12-18T06:31:20;100678.69;;;-7.11;76.58
67842;BME280;54642;59.126;37.876;2022-12-18T06:33:46;100672.34;;;-7.05;76.66
67842;BME280;54642;59.126;37.876;2022-12-18T06:36:13;100674.91;;;-6.94;76.14
67842;BME280;54642;59.126;37.876;2022-12-18T06:38:41;100661.53;;;-6.93;76.14
67842;BME280;54642;59.126;37.876;2022-12-18T06:41:16;100673.03;;;-6.96;76.37
67842;BME280;54642;59.126;37.876;2022-12-18T06:43:43;100648.56;;;-7.09;76.26
67842;BME280;54642;59.126;37.876;2022-12-18T06:46:09;100655.06;;;-7.01;76.13
67842;BME280;54642;59.126;37.876;2022-12-18T06:48:38;100676.22;;;-6.99;75.88
67842;BME280;54642;59.126;37.876;2022-12-18T06:51:10;100676.41;;;-6.96;76.07
67842;BME280;54642;59.126;37.876;2022-12-18T06:53:36;100649.00;;;-7.15;76.11
67842;BME280;54642;59.126;37.876;2022-12-18T06:56:05;100691.75;;;-7.04;76.14
67842;BME280;54642;59.126;37.876;2022-12-18T06:58:32;100687.59;;;-7.04;76.42
67842;BME280;54642;59.126;37.876;2022-12-18T07:01:06;100695.47;;;-6.99;76.67
67842;BME280;54642;59.126;37.876;2022-12-18T07:03:33;100670.75;;;-6.93;76.46
67842;BME280;54642;59.126;37.876;2022-12-18T07:05:59;100681.56;;;-6.94;76.16
67842;BME280;54642;59.126;37.876;2022-12-18T07:08:29;100648.13;;;-7.15;76.24
67842;BME280;54642;59.126;37.876;2022-12-18T07:10:55;100670.69;;;-7.17;75.96
67842;BME280;54642;59.126;37.876;2022-12-18T07:13:21;100651.25;;;-7.30;76.07
67842;BME280;54642;59.126;37.876;2022-12-18T07:15:47;100658.03;;;-7.29;76.34
67842;BME280;54642;59.126;37.876;2022-12-18T07:18:13;100679.53;;;-7.10;76.05
67842;BME280;54642;59.126;37.876;2022-12-18T07:20:39;100673.34;;;-7.03;75.98
67842;BME280;54642;59.126;37.876;2022-12-18T07:23:05;100672.91;;;-6.98;75.76
67842;BME280;54642;59.126;37.876;2022-12-18T07:25:35;100664.13;;;-7.03;75.52
67842;BME280;54642;59.126;37.876;2022-12-18T07:28:01;100616.75;;;-7.31;76.14
67842;BME280;54642;59.126;37.876;2022-12-18T07:30:27;100664.84;;;-6.94;75.49
67842;BME280;54642;59.126;37.876;2022-12-18T07:32:54;100661.97;;;-6.98;75.33
67842;BME280;54642;59.126;37.876;2022-12-18T07:35:25;100666.88;;;-7.00;75.12
67842;BME280;54642;59.126;37.876;2022-12-18T07:37:51;100633.22;;;-7.12;75.43
67842;BME280;54642;59.126;37.876;2022-12-18T07:40:17;100662.50;;;-7.02;75.49
67842;BME280;54642;59.126;37.876;2022-12-18T07:42:43;100654.91;;;-7.14;75.61
67842;BME280;54642;59.126;37.876;2022-12-18T07:45:12;100646.34;;;-7.16;75.71
67842;BME280;54642;59.126;37.876;2022-12-18T07:47:41;100670.06;;;-7.02;75.81
67842;BME280;54642;59.126;37.876;2022-12-18T07:50:07;100666.88;;;-7.00;75.87
67842;BME280;54642;59.126;37.876;2022-12-18T07:52:33;100655.38;;;-7.08;75.65
67842;BME280;54642;59.126;37.876;2022-12-18T07:54:59;100657.13;;;-7.07;76.03
67842;BME280;54642;59.126;37.876;2022-12-18T07:57:25;100665.91;;;-7.02;75.82
67842;BME280;54642;59.126;37.876;2022-12-18T07:59:51;100672.47;;;-7.04;76.15
67842;BME280;54642;59.126;37.876;2022-12-18T08:02:47;100688.44;;;-7.03;76.12
67842;BME280;54642;59.126;37.876;2022-12-18T08:06:08;100672.03;;;-6.98;75.61
67842;BME280;54642;59.126;37.876;2022-12-18T08:09:09;100616.97;;;-7.28;75.43
67842;BME280;54642;59.126;37.876;2022-12-18T08:11:36;100661.31;;;-6.96;75.43
67842;BME280;54642;59.126;37.876;2022-12-18T08:14:05;100645.06;;;-7.11;75.42
67842;BME280;54642;59.126;37.876;2022-12-18T08:16:30;100656.06;;;-6.99;75.07
67842;BME280;54642;59.126;37.876;2022-12-18T08:18:56;100651.50;;;-7.15;74.50
67842;BME280;54642;59.126;37.876;2022-12-18T08:21:43;100655.44;;;-7.18;74.24
67842;BME280;54642;59.126;37.876;2022-12-18T08:24:09;100646.31;;;-7.28;74.62
67842;BME280;54642;59.126;37.876;2022-12-18T08:26:36;100659.25;;;-7.23;74.52
67842;BME280;54642;59.126;37.876;2022-12-18T08:29:02;100660.13;;;-7.23;74.71
67842;BME280;54642;59.126;37.876;2022-12-18T08:31:29;100666.38;;;-7.18;74.85
67842;BME280;54642;59.126;37.876;2022-12-18T08:33:56;100656.06;;;-7.21;74.60
67842;BME280;54642;59.126;37.876;2022-12-18T08:36:24;100665.03;;;-7.24;74.36
67842;BME280;54642;59.126;37.876;2022-12-18T08:38:50;100656.16;;;-7.31;74.24
67842;BME280;54642;59.126;37.876;2022-12-18T08:41:17;100656.78;;;-7.34;74.21
67842;BME280;54642;59.126;37.876;2022-12-18T08:43:44;100638.03;;;-7.49;74.23
67842;BME280;54642;59.126;37.876;2022-12-18T08:46:39;100657.03;;;-7.31;74.39
67842;BME280;54642;59.126;37.876;2022-12-18T08:49:06;100657.28;;;-7.28;74.58
67842;BME280;54642;59.126;37.876;2022-12-18T08:51:33;100661.41;;;-7.28;74.33
67842;BME280;54642;59.126;37.876;2022-12-18T08:53:59;100630.22;;;-7.52;74.20
67842;BME280;54642;59.126;37.876;2022-12-18T08:56:25;100667.75;;;-7.33;74.37
67842;BME280;54642;59.126;37.876;2022-12-18T08:58:54;100666.84;;;-7.34;74.44
67842;BME280;54642;59.126;37.876;2022-12-18T09:01:28;100662.38;;;-7.38;73.84
67842;BME280;54642;59.126;37.876;2022-12-18T09:03:54;100671.91;;;-7.34;74.06
67842;BME280;54642;59.126;37.876;2022-12-18T09:06:21;100660.38;;;-7.42;73.92
67842;BME280;54642;59.126;37.876;2022-12-18T09:08:51;100678.22;;;-7.39;74.03
67842;BME280;54642;59.126;37.876;2022-12-18T09:11:22;100653.72;;;-7.63;74.05
67842;BME280;54642;59.126;37.876;2022-12-18T09:13:49;100683.22;;;-7.51;74.39
67842;BME280;54642;59.126;37.876;2022-12-18T09:16:16;100675.03;;;-7.58;74.59
67842;BME280;54642;59.126;37.876;2022-12-18T09:18:45;100679.28;;;-7.47;74.77
67842;BME280;54642;59.126;37.876;2022-12-18T09:21:14;100686.19;;;-7.44;75.25
67842;BME280;54642;59.126;37.876;2022-12-18T09:23:42;100675.88;;;-7.48;75.04
67842;BME280;54642;59.126;37.876;2022-12-18T09:26:08;100678.72;;;-7.33;75.25
67842;BME280;54642;59.126;37.876;2022-12-18T09:28:34;100685.66;;;-7.18;74.92
67842;BME280;54642;59.126;37.876;2022-12-18T09:31:04;100676.75;;;-7.25;74.88
67842;BME280;54642;59.126;37.876;2022-12-18T09:33:31;100667.34;;;-7.28;74.79
67842;BME280;54642;59.126;37.876;2022-12-18T09:35:57;100669.13;;;-7.37;74.87
67842;BME280;54642;59.126;37.876;2022-12-18T09:38:23;100685.03;;;-7.38;74.86
67842;BME280;54642;59.126;37.876;2022-12-18T09:40:52;100697.69;;;-7.26;75.27
67842;BME280;54642;59.126;37.876;2022-12-18T09:43:22;100676.53;;;-7.50;74.98
67842;BME280;54642;59.126;37.876;2022-12-18T09:46:03;100683.25;;;-7.39;75.07
67842;BME280;54642;59.126;37.876;2022-12-18T09:48:46;100694.25;;;-7.26;74.94
67842;BME280;54642;59.126;37.876;2022-12-18T09:51:30;100667.22;;;-7.51;74.75
67842;BME280;54642;59.126;37.876;2022-12-18T09:54:03;100699.63;;;-7.44;74.84
67842;BME280;54642;59.126;37.876;2022-12-18T09:56:35;100684.91;;;-7.39;75.04
67842;BME280;54642;59.126;37.876;2022-12-18T09:59:04;100699.50;;;-7.13;75.04
67842;BME280;54642;59.126;37.876;2022-12-18T10:01:33;100700.06;;;-7.05;74.30
67842;BME280;54642;59.126;37.876;2022-12-18T10:04:02;100667.03;;;-7.20;74.11
67842;BME280;54642;59.126;37.876;2022-12-18T10:06:32;100687.53;;;-7.16;73.87
67842;BME280;54642;59.126;37.876;2022-12-18T10:09:23;100674.28;;;-7.35;73.85
67842;BME280;54642;59.126;37.876;2022-12-18T10:20:34;100648.88;;;-7.82;74.84
67842;BME280;54642;59.126;37.876;2022-12-18T10:23:33;100695.88;;;-7.05;74.74
67842;BME280;54642;59.126;37.876;2022-12-18T10:26:09;100683.41;;;-7.03;74.13
67842;BME280;54642;59.126;37.876;2022-12-18T10:28:37;100682.31;;;-7.07;73.84
67842;BME280;54642;59.126;37.876;2022-12-18T10:31:20;100689.84;;;-7.19;73.34
67842;BME280;54642;59.126;37.876;2022-12-18T10:33:47;100659.59;;;-7.41;73.36
67842;BME280;54642;59.126;37.876;2022-12-18T10:36:13;100679.94;;;-7.28;73.36
67842;BME280;54642;59.126;37.876;2022-12-18T10:38:39;100679.94;;;-7.28;73.39
67842;BME280;54642;59.126;37.876;2022-12-18T10:43:44;100683.19;;;-7.29;73.58
67842;BME280;54642;59.126;37.876;2022-12-18T10:48:57;100677.63;;;-7.24;73.25
67842;BME280;54642;59.126;37.876;2022-12-18T10:51:31;100669.50;;;-7.32;73.26
67842;BME280;54642;59.126;37.876;2022-12-18T10:56:31;100668.22;;;-7.49;72.73
67842;BME280;54642;59.126;37.876;2022-12-18T10:59:03;100662.47;;;-7.58;72.46
67842;BME280;54642;59.126;37.876;2022-12-18T11:01:53;100667.28;;;-7.61;72.69
67842;BME280;54642;59.126;37.876;2022-12-18T11:04:30;100622.78;;;-7.95;72.57
67842;BME280;54642;59.126;37.876;2022-12-18T11:07:00;100670.59;;;-7.73;72.83
67842;BME280;54642;59.126;37.876;2022-12-18T11:09:30;100675.13;;;-7.69;72.56
67842;BME280;54642;59.126;37.876;2022-12-18T11:12:03;100679.38;;;-7.68;73.01
67842;BME280;54642;59.126;37.876;2022-12-18T11:14:53;100678.63;;;-7.67;72.66
67842;BME280;54642;59.126;37.876;2022-12-18T11:17:34;100677.13;;;-7.75;72.55
67842;BME280;54642;59.126;37.876;2022-12-18T11:23:00;100676.19;;;-7.87;72.56
67842;BME280;54642;59.126;37.876;2022-12-18T11:25:26;100687.28;;;-7.85;72.60
67842;BME280;54642;59.126;37.876;2022-12-18T11:28:01;100675.97;;;-7.90;72.70
67842;BME280;54642;59.126;37.876;2022-12-18T11:30:32;100673.94;;;-7.94;72.33
67842;BME280;54642;59.126;37.876;2022-12-18T11:33:23;100684.53;;;-7.98;72.36
67842;BME280;54642;59.126;37.876;2022-12-18T11:35:55;100681.63;;;-8.03;72.72
67842;BME280;54642;59.126;37.876;2022-12-18T11:38:29;100685.06;;;-8.02;72.60
67842;BME280;54642;59.126;37.876;2022-12-18T11:43:34;100684.69;;;-8.07;72.50
67842;BME280;54642;59.126;37.876;2022-12-18T11:46:13;100680.66;;;-8.05;72.94
67842;BME280;54642;59.126;37.876;2022-12-18T11:48:49;100656.69;;;-8.22;72.73
67842;BME280;54642;59.126;37.876;2022-12-18T11:51:38;100678.59;;;-8.31;73.41
67842;BME280;54642;59.126;37.876;2022-12-18T11:54:14;100703.06;;;-8.08;73.23
67842;BME280;54642;59.126;37.876;2022-12-18T11:57:07;100694.13;;;-8.05;73.20
67842;BME280;54642;59.126;37.876;2022-12-18T11:59:54;100684.56;;;-8.09;72.89
67842;BME280;54642;59.126;37.876;2022-12-18T12:08:14;100691.81;;;-8.01;72.86
67842;BME280;54642;59.126;37.876;2022-12-18T12:21:50;100697.00;;;-8.10;72.58
67842;BME280;54642;59.126;37.876;2022-12-18T12:24:25;100697.50;;;-8.04;72.34
67842;BME280;54642;59.126;37.876;2022-12-18T12:27:13;100721.28;;;-8.11;72.51
67842;BME280;54642;59.126;37.876;2022-12-18T12:29:53;100705.72;;;-8.17;72.60
67842;BME280;54642;59.126;37.876;2022-12-18T12:38:28;100704.22;;;-8.35;73.61
67842;BME280;54642;59.126;37.876;2022-12-18T12:41:10;100704.00;;;-8.38;73.67
67842;BME280;54642;59.126;37.876;2022-12-18T12:44:02;100703.09;;;-8.39;73.21
67842;BME280;54642;59.126;37.876;2022-12-18T12:46:32;100713.78;;;-8.41;73.62
67842;BME280;54642;59.126;37.876;2022-12-18T12:49:14;100709.81;;;-8.50;73.67
67842;BME280;54642;59.126;37.876;2022-12-18T12:51:57;100715.72;;;-8.49;73.99
67842;BME280;54642;59.126;37.876;2022-12-18T12:54:29;100707.13;;;-8.41;74.27
67842;BME280;54642;59.126;37.876;2022-12-18T12:59:51;100731.13;;;-8.34;73.91
67842;BME280;54642;59.126;37.876;2022-12-18T13:08:02;100722.34;;;-8.39;72.99
67842;BME280;54642;59.126;37.876;2022-12-18T13:10:33;100735.91;;;-8.37;73.40
67842;BME280;54642;59.126;37.876;2022-12-18T13:13:12;100719.59;;;-8.43;73.30
67842;BME280;54642;59.126;37.876;2022-12-18T13:15:46;100741.31;;;-8.33;72.93
67842;BME280;54642;59.126;37.876;2022-12-18T13:18:23;100746.38;;;-8.43;73.07
67842;BME280;54642;59.126;37.876;2022-12-18T13:21:02;100750.00;;;-8.50;73.11
67842;BME280;54642;59.126;37.876;2022-12-18T13:23:34;100745.00;;;-8.50;73.13
67842;BME280;54642;59.126;37.876;2022-12-18T13:28:59;100738.59;;;-8.56;73.08
67842;BME280;54642;59.126;37.876;2022-12-18T13:34:24;100755.69;;;-8.52;73.16
67842;BME280;54642;59.126;37.876;2022-12-18T13:36:51;100745.75;;;-8.61;73.49
67842;BME280;54642;59.126;37.876;2022-12-18T13:39:31;100767.25;;;-8.54;73.31
67842;BME280;54642;59.126;37.876;2022-12-18T13:44:40;100730.41;;;-8.64;73.01
67842;BME280;54642;59.126;37.876;2022-12-18T13:47:31;100758.72;;;-8.56;73.01
67842;BME280;54642;59.126;37.876;2022-12-18T13:49:58;100716.75;;;-8.78;73.11
67842;BME280;54642;59.126;37.876;2022-12-18T13:52:34;100755.81;;;-8.61;72.82
67842;BME280;54642;59.126;37.876;2022-12-18T13:55:05;100743.00;;;-8.74;72.70
67842;BME280;54642;59.126;37.876;2022-12-18T13:57:36;100761.81;;;-8.69;72.55
67842;BME280;54642;59.126;37.876;2022-12-18T14:00:33;100773.88;;;-8.75;72.71
67842;BME280;54642;59.126;37.876;2022-12-18T14:02:59;100767.84;;;-8.77;73.11
67842;BME280;54642;59.126;37.876;2022-12-18T14:07:55;100753.38;;;-9.01;73.38
67842;BME280;54642;59.126;37.876;2022-12-18T14:10:26;100773.72;;;-8.97;73.72
67842;BME280;54642;59.126;37.876;2022-12-18T14:12:53;100751.47;;;-9.13;73.96
67842;BME280;54642;59.126;37.876;2022-12-18T14:18:25;100784.00;;;-8.94;73.86
67842;BME280;54642;59.126;37.876;2022-12-18T14:20:56;100784.91;;;-8.94;73.88
67842;BME280;54642;59.126;37.876;2022-12-18T14:23:41;100787.03;;;-8.98;73.84
67842;BME280;54642;59.126;37.876;2022-12-18T14:26:25;100789.03;;;-8.94;73.35
67842;BME280;54642;59.126;37.876;2022-12-18T14:28:54;100770.31;;;-8.98;73.33
67842;BME280;54642;59.126;37.876;2022-12-18T14:31:29;100774.22;;;-8.91;73.02
67842;BME280;54642;59.126;37.876;2022-12-18T14:33:56;100784.16;;;-8.83;72.64
67842;BME280;54642;59.126;37.876;2022-12-18T14:36:23;100796.22;;;-8.78;72.82
67842;BME280;54642;59.126;37.876;2022-12-18T14:38:54;100796.34;;;-8.87;72.78